Time;durP1;ratioP1;P1;durP2;ratioP2;P2;SDS_P1;SDS_P2;PMS_P1;PMS_P2;Temp;Humidity;BMP_temperature;BMP_pressure;BME280_temperature;BME280_humidity;BME280_pressure;Samples;Min_cycle;Max_cycle;Signal;HPM_P1;HPM_P2
2023/04/24 00:00:14;;;;;;;6.32;3.47;;;10.80;99.90;;;;;;6109941;23;20080;-89
2023/04/24 00:02:47;;;;;;;4.38;3.05;;;10.80;99.90;;;;;;6108649;23;20021;-89
2023/04/24 00:05:14;;;;;;;3.40;2.50;;;10.90;99.90;;;;;;6131955;23;20409;-88
2023/04/24 00:07:41;;;;;;;3.85;2.40;;;10.70;99.90;;;;;;6108196;23;20089;-89
2023/04/24 00:10:08;;;;;;;6.63;2.28;;;10.70;99.90;;;;;;6109476;23;20056;-89
2023/04/24 00:12:34;;;;;;;3.97;2.20;;;10.70;99.90;;;;;;6108295;23;20039;-88
2023/04/24 00:15:00;;;;;;;2.90;2.10;;;10.80;99.90;;;;;;6133424;23;20013;-89
2023/04/24 00:17:26;;;;;;;2.88;1.70;;;11.00;99.90;;;;;;6107978;23;20048;-88
2023/04/24 00:19:58;;;;;;;3.17;1.90;;;10.70;99.90;;;;;;6108100;23;20289;-87
2023/04/24 00:22:24;;;;;;;2.92;2.13;;;10.70;99.90;;;;;;6107484;23;20112;-88
2023/04/24 00:24:49;;;;;;;2.63;1.80;;;10.30;99.90;;;;;;6107542;23;20393;-89
2023/04/24 00:27:15;;;;;;;2.75;1.50;;;10.70;99.90;;;;;;6107450;23;20025;-88
2023/04/24 00:29:41;;;;;;;2.72;1.70;;;10.60;99.90;;;;;;6107822;23;20014;-86
2023/04/24 00:32:07;;;;;;;5.05;1.60;;;10.60;99.90;;;;;;6107817;23;20104;-87
2023/04/24 00:34:32;;;;;;;3.05;1.23;;;10.60;99.90;;;;;;6108136;23;20064;-87
2023/04/24 00:36:58;;;;;;;3.22;1.50;;;10.60;99.90;;;;;;6106609;23;20045;-87
2023/04/24 00:39:24;;;;;;;3.72;2.05;;;11.20;99.90;;;;;;6107115;23;20401;-87
2023/04/24 00:41:50;;;;;;;5.13;1.88;;;10.50;99.90;;;;;;6106624;23;20014;-88
2023/04/24 00:44:16;;;;;;;2.20;1.60;;;10.40;99.90;;;;;;6106676;23;20092;-87
2023/04/24 00:46:42;;;;;;;2.67;1.60;;;10.40;99.90;;;;;;6131815;23;20014;-88
2023/04/24 00:49:08;;;;;;;2.90;2.10;;;10.80;99.90;;;;;;6107297;23;20499;-88
2023/04/24 00:51:34;;;;;;;2.25;1.70;;;10.30;99.90;;;;;;6107901;23;20048;-87
2023/04/24 00:54:00;;;;;;;2.50;1.80;;;10.40;99.90;;;;;;6107010;23;20065;-87
2023/04/24 00:56:27;;;;;;;2.63;1.95;;;10.40;99.90;;;;;;6101627;23;20022;-88
2023/04/24 00:58:53;;;;;;;3.03;2.22;;;10.30;99.90;;;;;;6102673;23;20014;-87
2023/04/24 01:01:21;;;;;;;4.45;2.67;;;10.70;99.90;;;;;;6102549;23;20014;-87
2023/04/24 01:03:48;;;;;;;2.65;2.00;;;10.30;99.90;;;;;;6126951;23;20069;-88
2023/04/24 01:06:15;;;;;;;3.80;2.65;;;10.60;99.90;;;;;;6126504;23;20032;-87
2023/04/24 01:08:41;;;;;;;4.07;2.40;;;10.30;99.90;;;;;;6126936;23;20017;-88
2023/04/24 01:11:07;;;;;;;3.60;2.65;;;10.20;99.90;;;;;;6102195;23;20049;-88
2023/04/24 01:13:34;;;;;;;3.25;2.30;;;11.00;99.90;;;;;;6101640;23;20018;-87
2023/04/24 01:16:00;;;;;;;4.05;2.90;;;10.20;99.90;;;;;;6102394;23;20104;-88
2023/04/24 01:18:27;;;;;;;3.40;2.50;;;10.20;99.90;;;;;;6127769;23;20049;-86
2023/04/24 01:20:55;;;;;;;4.05;2.78;;;10.70;99.90;;;;;;6103339;23;20077;-88
2023/04/24 01:23:21;;;;;;;3.97;3.05;;;10.90;99.90;;;;;;6127131;23;20035;-87
2023/04/24 01:25:48;;;;;;;6.15;3.08;;;10.30;99.90;;;;;;6104227;23;20010;-87
2023/04/24 01:28:14;;;;;;;4.55;3.28;;;10.90;99.90;;;;;;6128253;23;20021;-87
2023/04/24 01:30:41;;;;;;;5.03;3.47;;;10.90;99.90;;;;;;6127395;23;20018;-87
2023/04/24 01:33:07;;;;;;;7.47;3.80;;;10.30;99.90;;;;;;6102323;23;20017;-85
2023/04/24 01:35:34;;;;;;;3.10;2.63;;;10.30;99.90;;;;;;6103528;23;20006;-87
2023/04/24 01:38:00;;;;;;;5.75;3.83;;;10.40;99.90;;;;;;6103893;23;20010;-88
2023/04/24 01:40:25;;;;;;;4.85;4.32;;;10.90;99.90;;;;;;6104591;23;20021;-87
2023/04/24 01:42:52;;;;;;;4.70;3.95;;;10.30;99.90;;;;;;6127784;23;20014;-87
2023/04/24 01:45:17;;;;;;;7.85;4.30;;;10.30;99.90;;;;;;6128034;23;20013;-87
2023/04/24 01:47:45;;;;;;;5.20;4.53;;;10.30;99.90;;;;;;6127576;23;20041;-88
2023/04/24 01:50:10;;;;;;;4.72;4.22;;;10.30;99.90;;;;;;6103369;23;20472;-87
2023/04/24 01:52:36;;;;;;;5.00;4.07;;;10.80;99.90;;;;;;6103416;23;20014;-88
2023/04/24 01:55:03;;;;;;;4.55;4.13;;;10.90;99.90;;;;;;6102424;23;20043;-86
2023/04/24 01:57:30;;;;;;;5.80;5.03;;;10.30;99.90;;;;;;6132674;23;20057;-87
2023/04/24 01:59:56;;;;;;;5.50;4.57;;;10.20;99.90;;;;;;6109300;23;20018;-89
2023/04/24 02:02:23;;;;;;;5.78;5.15;;;10.40;99.90;;;;;;6132526;23;20046;-88
2023/04/24 02:04:50;;;;;;;5.68;5.18;;;10.40;99.90;;;;;;6132784;23;20029;-87
2023/04/24 02:07:16;;;;;;;7.03;6.32;;;11.00;99.90;;;;;;6106893;23;20012;-87
2023/04/24 02:09:41;;;;;;;6.90;6.20;;;10.40;99.90;;;;;;6132442;23;20037;-88
2023/04/24 02:12:07;;;;;;;6.80;6.20;;;10.30;99.90;;;;;;6132372;23;20023;-87
2023/04/24 02:14:33;;;;;;;7.53;6.72;;;10.40;99.90;;;;;;6134020;23;20013;-87
2023/04/24 02:17:00;;;;;;;6.90;6.30;;;10.10;99.90;;;;;;6107816;23;20021;-88
2023/04/24 02:19:26;;;;;;;7.28;6.50;;;10.60;99.90;;;;;;6109072;23;20085;-88
2023/04/24 02:21:52;;;;;;;8.20;7.43;;;10.40;99.90;;;;;;6108064;23;20014;-88
2023/04/24 02:24:17;;;;;;;9.45;8.43;;;10.40;99.90;;;;;;6133291;23;20310;-87
2023/04/24 02:26:43;;;;;;;10.07;9.18;;;10.40;99.90;;;;;;6158602;23;20010;-88
2023/04/24 02:29:09;;;;;;;8.32;7.55;;;10.40;99.90;;;;;;6131520;23;20061;-87
2023/04/24 02:31:34;;;;;;;9.57;8.68;;;10.40;99.90;;;;;;6134289;23;20341;-87
2023/04/24 02:34:00;;;;;;;12.00;10.88;;;10.90;99.90;;;;;;6158432;23;20469;-88
2023/04/24 02:36:26;;;;;;;10.43;9.43;;;10.90;99.90;;;;;;6107308;23;20515;-88
2023/04/24 02:38:52;;;;;;;11.20;9.93;;;10.40;99.90;;;;;;6108031;23;20316;-87
2023/04/24 02:41:17;;;;;;;11.02;10.02;;;10.40;99.90;;;;;;6132506;23;20013;-88
2023/04/24 02:43:43;;;;;;;8.95;8.15;;;10.40;99.90;;;;;;6133279;23;20040;-88
2023/04/24 02:46:09;;;;;;;11.30;10.13;;;10.40;99.90;;;;;;6132142;23;20024;-87
2023/04/24 02:48:34;;;;;;;11.63;10.52;;;10.40;99.90;;;;;;6132228;23;20009;-88
2023/04/24 02:51:00;;;;;;;11.10;10.00;;;10.80;99.90;;;;;;6107761;23;20337;-88
2023/04/24 02:53:26;;;;;;;10.80;9.70;;;11.10;99.90;;;;;;6106914;23;20076;-88
2023/04/24 02:55:51;;;;;;;11.15;10.15;;;10.50;99.90;;;;;;6102665;23;20018;-88
2023/04/24 02:58:19;;;;;;;9.90;9.00;;;10.40;99.90;;;;;;6102493;23;20018;-88
2023/04/24 03:00:47;;;;;;;11.60;10.50;;;10.90;99.90;;;;;;6102868;23;20059;-88
2023/04/24 03:03:13;;;;;;;11.45;10.45;;;11.10;99.90;;;;;;6103016;23;20014;-88
2023/04/24 03:05:39;;;;;;;12.57;11.40;;;10.80;99.90;;;;;;6103103;23;20050;-87
2023/04/24 03:08:06;;;;;;;13.05;11.95;;;10.80;99.90;;;;;;6101906;23;20376;-87
2023/04/24 03:10:32;;;;;;;15.25;13.85;;;10.50;99.90;;;;;;6127608;23;20088;-87
2023/04/24 03:12:57;;;;;;;12.65;11.45;;;10.40;99.90;;;;;;6126548;23;20014;-87
2023/04/24 03:15:23;;;;;;;14.68;13.38;;;10.20;99.90;;;;;;6101378;23;20089;-88
2023/04/24 03:17:49;;;;;;;14.40;13.20;;;10.30;99.90;;;;;;6126458;23;20648;-88
2023/04/24 03:20:15;;;;;;;14.25;12.52;;;10.30;99.90;;;;;;6126196;23;20056;-86
2023/04/24 03:22:41;;;;;;;14.52;13.23;;;10.60;99.90;;;;;;6102577;23;20021;-86
2023/04/24 03:25:08;;;;;;;13.50;12.40;;;10.40;99.90;;;;;;6126324;23;20014;-88
2023/04/24 03:27:34;;;;;;;10.15;9.35;;;10.30;99.90;;;;;;6101702;23;20061;-87
2023/04/24 03:30:00;;;;;;;11.93;10.77;;;10.50;99.90;;;;;;6102291;23;20121;-87
2023/04/24 03:32:26;;;;;;;10.57;9.68;;;10.40;99.90;;;;;;6127352;23;20009;-86
2023/04/24 03:34:52;;;;;;;11.55;10.35;;;10.50;99.90;;;;;;6126426;23;20049;-87
2023/04/24 03:37:17;;;;;;;12.20;11.00;;;10.20;99.90;;;;;;6127654;23;20009;-87
2023/04/24 03:39:43;;;;;;;11.82;10.63;;;10.80;99.90;;;;;;6102354;23;20013;-87
2023/04/24 03:42:09;;;;;;;9.88;8.98;;;10.20;99.90;;;;;;6125988;23;20025;-87
2023/04/24 03:44:35;;;;;;;10.63;9.27;;;10.20;99.90;;;;;;6101805;23;20097;-87
2023/04/24 03:47:02;;;;;;;11.88;10.65;;;10.20;99.90;;;;;;6127101;23;20014;-87
2023/04/24 03:49:27;;;;;;;8.32;7.57;;;10.20;99.90;;;;;;6101329;23;20014;-87
2023/04/24 03:51:53;;;;;;;10.57;9.55;;;10.90;99.90;;;;;;6101717;23;20013;-87
2023/04/24 03:54:19;;;;;;;9.68;8.77;;;10.20;99.90;;;;;;6102383;23;20028;-86
2023/04/24 03:56:45;;;;;;;8.45;7.70;;;10.80;99.90;;;;;;6100502;23;20029;-89
2023/04/24 03:59:11;;;;;;;7.78;7.07;;;10.70;99.90;;;;;;6102163;23;20057;-87
2023/04/24 04:01:37;;;;;;;7.88;7.10;;;10.20;99.90;;;;;;6124992;23;20365;-88
2023/04/24 04:04:03;;;;;;;8.07;7.28;;;10.40;99.90;;;;;;6101953;23;20063;-86
2023/04/24 04:06:30;;;;;;;7.63;5.95;;;10.30;99.90;;;;;;6126643;23;20046;-87
2023/04/24 04:08:59;;;;;;;7.65;6.68;;;10.60;99.90;;;;;;6101063;23;20057;-87
2023/04/24 04:11:25;;;;;;;7.50;6.68;;;10.10;99.90;;;;;;6100637;23;20318;-87
2023/04/24 04:13:51;;;;;;;10.20;8.52;;;10.10;99.90;;;;;;6101688;23;20025;-88
2023/04/24 04:16:17;;;;;;;7.80;7.00;;;10.60;99.90;;;;;;6101656;23;20446;-87
2023/04/24 04:18:43;;;;;;;9.57;8.38;;;10.20;99.90;;;;;;6102392;23;20021;-87
2023/04/24 04:21:09;;;;;;;8.27;7.35;;;10.10;99.90;;;;;;6125902;23;20160;-86
2023/04/24 04:23:35;;;;;;;10.05;9.07;;;10.00;99.90;;;;;;6100968;23;20075;-87
2023/04/24 04:26:01;;;;;;;12.75;10.13;;;10.60;99.90;;;;;;6125728;23;20014;-87
2023/04/24 04:28:27;;;;;;;8.57;7.78;;;10.10;99.90;;;;;;6100405;23;20010;-86
2023/04/24 04:30:57;;;;;;;9.15;8.15;;;10.00;99.90;;;;;;6124783;23;20088;-87
2023/04/24 04:33:26;;;;;;;10.07;9.07;;;10.20;99.90;;;;;;6125370;23;20014;-86
2023/04/24 04:35:52;;;;;;;10.10;9.05;;;10.00;99.90;;;;;;6100201;23;20037;-86
2023/04/24 04:38:18;;;;;;;10.20;9.30;;;10.80;99.90;;;;;;6100170;23;20025;-87
2023/04/24 04:40:44;;;;;;;11.18;10.07;;;10.30;99.90;;;;;;6124436;23;20045;-86
2023/04/24 04:43:10;;;;;;;9.52;8.57;;;10.30;99.90;;;;;;6126984;23;20037;-87
2023/04/24 04:45:38;;;;;;;12.85;11.38;;;10.00;99.90;;;;;;6124971;23;20010;-87
2023/04/24 04:48:07;;;;;;;11.63;10.45;;;10.00;99.90;;;;;;6101679;23;20072;-87
2023/04/24 04:50:33;;;;;;;10.25;9.27;;;10.60;99.90;;;;;;6126653;23;20049;-86
2023/04/24 04:52:59;;;;;;;12.35;11.13;;;10.00;99.90;;;;;;6125588;23;20018;-86
2023/04/24 04:55:25;;;;;;;9.77;8.90;;;10.30;99.90;;;;;;6127493;23;20146;-85
2023/04/24 04:57:51;;;;;;;11.00;8.90;;;9.90;99.90;;;;;;6107853;23;20036;-86
2023/04/24 05:00:17;;;;;;;10.48;9.48;;;10.00;99.90;;;;;;6132640;23;20010;-86
2023/04/24 05:02:43;;;;;;;11.50;8.65;;;9.90;99.90;;;;;;6107231;23;20060;-87
2023/04/24 05:05:09;;;;;;;8.65;7.85;;;10.30;99.90;;;;;;6108953;23;20079;-87
2023/04/24 05:07:35;;;;;;;7.95;6.95;;;9.90;99.90;;;;;;6108248;23;20018;-86
2023/04/24 05:10:01;;;;;;;6.88;6.28;;;9.90;99.90;;;;;;6108192;23;20268;-88
2023/04/24 05:12:27;;;;;;;7.68;6.38;;;10.10;99.90;;;;;;6132249;23;20018;-87
2023/04/24 05:14:52;;;;;;;7.88;4.65;;;10.30;99.90;;;;;;6108093;23;20351;-87
2023/04/24 05:17:18;;;;;;;4.85;4.20;;;10.00;99.90;;;;;;6132551;23;20405;-88
2023/04/24 05:19:44;;;;;;;4.55;3.70;;;10.20;99.90;;;;;;6131988;23;20021;-87
2023/04/24 05:22:11;;;;;;;3.53;2.85;;;10.60;99.90;;;;;;6105703;23;20089;-88
2023/04/24 05:24:37;;;;;;;5.93;3.00;;;10.20;99.90;;;;;;6103838;23;20005;-88
2023/04/24 05:27:04;;;;;;;3.67;2.70;;;10.40;99.90;;;;;;6155515;23;20013;-87
2023/04/24 05:29:31;;;;;;;4.15;2.00;;;10.40;99.90;;;;;;6128844;23;20013;-88
2023/04/24 05:31:57;;;;;;;4.65;2.55;;;10.00;99.90;;;;;;6104117;23;20013;-87
2023/04/24 05:34:23;;;;;;;3.15;2.38;;;10.80;99.90;;;;;;6104383;23;20014;-88
2023/04/24 05:36:50;;;;;;;4.55;2.60;;;10.00;99.90;;;;;;6103848;23;20024;-87
2023/04/24 05:39:16;;;;;;;2.80;2.00;;;10.70;99.90;;;;;;6104021;23;20021;-87
2023/04/24 05:41:42;;;;;;;3.22;1.85;;;10.40;99.90;;;;;;6104026;23;20013;-87
2023/04/24 05:44:07;;;;;;;2.55;1.85;;;10.40;99.90;;;;;;6154461;23;20017;-88
2023/04/24 05:46:33;;;;;;;3.03;1.88;;;10.60;99.90;;;;;;6128645;23;20364;-87
2023/04/24 05:48:59;;;;;;;6.90;2.58;;;10.00;99.90;;;;;;6128712;23;20018;-88
2023/04/24 05:51:25;;;;;;;5.95;2.63;;;10.00;99.90;;;;;;6128179;23;20014;-88
2023/04/24 05:53:51;;;;;;;5.55;2.65;;;10.00;99.90;;;;;;6128491;23;20035;-88
2023/04/24 05:56:17;;;;;;;7.50;2.70;;;10.00;99.90;;;;;;6123318;23;20412;-87
2023/04/24 05:58:43;;;;;;;3.30;2.60;;;10.70;99.90;;;;;;6123986;23;20413;-88
2023/04/24 06:01:09;;;;;;;3.60;2.38;;;10.00;99.90;;;;;;6124015;23;20018;-88
2023/04/24 06:03:35;;;;;;;3.63;2.13;;;10.80;99.90;;;;;;6098639;23;20342;-87
2023/04/24 06:06:00;;;;;;;4.47;3.30;;;10.90;99.90;;;;;;6124142;23;20010;-87
2023/04/24 06:08:26;;;;;;;4.53;2.90;;;10.10;99.90;;;;;;6123640;23;20014;-88
2023/04/24 06:10:52;;;;;;;3.35;2.75;;;11.00;99.90;;;;;;6124289;23;20334;-87
2023/04/24 06:13:17;;;;;;;3.00;2.53;;;10.10;99.90;;;;;;6099940;23;20386;-88
2023/04/24 06:15:43;;;;;;;3.70;3.00;;;10.70;99.90;;;;;;6099453;23;20093;-87
2023/04/24 06:18:12;;;;;;;4.63;2.83;;;10.30;99.90;;;;;;6123436;23;20462;-87
2023/04/24 06:20:38;;;;;;;3.72;2.60;;;11.00;99.90;;;;;;6123675;23;20030;-87
2023/04/24 06:23:04;;;;;;;3.20;2.10;;;10.30;99.90;;;;;;6098347;23;20010;-87
2023/04/24 06:25:30;;;;;;;3.60;1.80;;;10.60;99.90;;;;;;6098694;23;20021;-87
2023/04/24 06:27:58;;;;;;;3.40;2.22;;;11.20;99.90;;;;;;6098806;23;20010;-87
2023/04/24 06:30:24;;;;;;;3.70;2.70;;;10.40;99.90;;;;;;6123645;23;20334;-88
2023/04/24 06:32:51;;;;;;;4.93;3.28;;;10.80;99.90;;;;;;6099032;23;20018;-87
2023/04/24 06:35:16;;;;;;;5.57;3.47;;;10.30;99.90;;;;;;6098880;23;20461;-88
2023/04/24 06:37:42;;;;;;;6.47;3.88;;;10.30;99.90;;;;;;6123055;23;20025;-88
2023/04/24 06:40:08;;;;;;;5.32;3.88;;;11.00;99.90;;;;;;6123855;23;20022;-88
2023/04/24 06:42:35;;;;;;;7.18;4.60;;;10.40;99.90;;;;;;6098643;23;20013;-87
2023/04/24 06:45:01;;;;;;;7.00;4.95;;;10.60;99.90;;;;;;6123599;23;20021;-88
2023/04/24 06:47:26;;;;;;;6.35;4.70;;;10.40;99.90;;;;;;6098418;23;20009;-87
2023/04/24 06:49:56;;;;;;;7.93;5.13;;;10.40;99.90;;;;;;6122852;23;20030;-87
2023/04/24 06:52:22;;;;;;;6.82;5.70;;;10.50;99.90;;;;;;6122476;23;20014;-87
2023/04/24 06:54:48;;;;;;;9.27;6.40;;;10.30;99.90;;;;;;6098107;23;20057;-87
2023/04/24 06:57:15;;;;;;;7.85;6.32;;;10.40;99.90;;;;;;6122774;23;20049;-88
2023/04/24 06:59:42;;;;;;;8.75;6.85;;;10.40;99.90;;;;;;6123446;23;20040;-88
2023/04/24 07:02:07;;;;;;;11.25;6.90;;;10.40;99.90;;;;;;6098665;23;20017;-89
2023/04/24 07:04:33;;;;;;;12.40;7.70;;;10.50;99.90;;;;;;6098390;23;20037;-88
2023/04/24 07:06:59;;;;;;;8.32;6.50;;;10.40;99.90;;;;;;6098982;23;20044;-88
2023/04/24 07:09:25;;;;;;;11.43;6.78;;;10.40;99.90;;;;;;6098937;23;20066;-88
2023/04/24 07:11:53;;;;;;;11.55;7.20;;;10.40;99.90;;;;;;6098881;23;20021;-88
2023/04/24 07:14:19;;;;;;;9.20;7.65;;;10.40;99.90;;;;;;6098579;23;20081;-87
2023/04/24 07:16:45;;;;;;;11.07;8.52;;;10.40;99.90;;;;;;6123313;23;20066;-88
2023/04/24 07:19:11;;;;;;;10.73;8.40;;;10.40;99.90;;;;;;6123366;23;20120;-89
2023/04/24 07:21:36;;;;;;;12.60;7.68;;;10.30;99.90;;;;;;6123741;23;20014;-88
2023/04/24 07:24:02;;;;;;;8.60;6.63;;;10.80;99.90;;;;;;6123062;23;20338;-87
2023/04/24 07:26:29;;;;;;;9.30;4.90;;;10.90;99.90;;;;;;6098953;23;20017;-88
2023/04/24 07:28:55;;;;;;;7.70;4.10;;;10.40;99.90;;;;;;6122958;23;20014;-88
2023/04/24 07:31:21;;;;;;;6.35;3.50;;;10.20;99.90;;;;;;6098793;23;20429;-87
2023/04/24 07:33:48;;;;;;;8.63;3.22;;;10.80;99.90;;;;;;6097984;23;20014;-88
2023/04/24 07:36:18;;;;;;;6.13;2.80;;;10.10;99.90;;;;;;6098186;23;20029;-88
2023/04/24 07:38:48;;;;;;;5.78;3.13;;;10.30;99.90;;;;;;6099039;23;20092;-88
2023/04/24 07:41:14;;;;;;;6.95;3.33;;;10.10;99.90;;;;;;6099141;23;20020;-88
2023/04/24 07:43:40;;;;;;;7.15;3.70;;;10.10;99.90;;;;;;6123588;23;20014;-88
2023/04/24 07:46:07;;;;;;;5.80;3.17;;;10.70;99.90;;;;;;6123286;23;20018;-88
2023/04/24 07:48:32;;;;;;;6.88;3.78;;;10.90;99.90;;;;;;6122886;23;20378;-88
2023/04/24 07:50:58;;;;;;;6.22;3.10;;;10.30;99.90;;;;;;6123107;23;20053;-88
2023/04/24 07:53:24;;;;;;;5.22;3.25;;;10.60;99.90;;;;;;6098635;23;20053;-88
2023/04/24 07:55:49;;;;;;;5.75;3.50;;;11.00;99.90;;;;;;6098571;23;20018;-88
2023/04/24 07:58:15;;;;;;;7.68;3.45;;;10.90;99.90;;;;;;6123406;23;20021;-88
2023/04/24 08:00:41;;;;;;;9.20;3.30;;;10.40;99.90;;;;;;6123340;23;20091;-88
2023/04/24 08:03:06;;;;;;;6.20;3.47;;;10.40;99.90;;;;;;6123454;23;20025;-88
2023/04/24 08:05:32;;;;;;;10.52;4.15;;;10.40;99.90;;;;;;6099005;23;20037;-87
2023/04/24 08:07:58;;;;;;;7.00;3.55;;;10.40;99.90;;;;;;6098754;23;20014;-88
2023/04/24 08:10:24;;;;;;;12.70;4.50;;;10.60;99.90;;;;;;6098974;23;20014;-88
2023/04/24 08:12:50;;;;;;;7.65;3.58;;;10.40;99.90;;;;;;6098735;23;20014;-88
2023/04/24 08:15:16;;;;;;;11.13;3.80;;;10.30;99.90;;;;;;6098964;23;20373;-88
2023/04/24 08:17:42;;;;;;;7.57;3.88;;;10.30;99.90;;;;;;6098350;23;20010;-88
2023/04/24 08:20:13;;;;;;;6.47;4.00;;;10.30;99.90;;;;;;6098320;23;20029;-88
2023/04/24 08:22:39;;;;;;;8.93;6.40;;;10.30;99.90;;;;;;6098387;23;20014;-88
2023/04/24 08:25:06;;;;;;;12.10;8.50;;;10.30;99.90;;;;;;6098539;23;20299;-87
2023/04/24 08:27:32;;;;;;;15.52;9.82;;;10.30;99.90;;;;;;6123821;23;20021;-88
2023/04/24 08:29:59;;;;;;;16.92;11.00;;;10.20;99.90;;;;;;6125046;23;20006;-87
2023/04/24 08:32:27;;;;;;;18.75;12.32;;;10.10;99.90;;;;;;6124321;23;20076;-86
2023/04/24 08:34:53;;;;;;;20.92;13.15;;;10.10;99.90;;;;;;6125966;23;20020;-88
2023/04/24 08:37:19;;;;;;;20.05;14.30;;;10.40;99.90;;;;;;6125096;23;20096;-87
2023/04/24 08:39:44;;;;;;;22.90;15.75;;;10.30;99.90;;;;;;6124857;23;20045;-88
2023/04/24 08:42:12;;;;;;;25.50;15.40;;;10.00;99.90;;;;;;6100759;23;20536;-89
2023/04/24 08:44:39;;;;;;;27.50;17.13;;;10.00;99.90;;;;;;6100252;23;20025;-88
2023/04/24 08:47:07;;;;;;;27.42;18.95;;;10.20;99.90;;;;;;6099679;23;20094;-88
2023/04/24 08:49:35;;;;;;;27.88;18.35;;;10.40;99.90;;;;;;6124919;23;20009;-87
2023/04/24 08:52:02;;;;;;;26.38;18.05;;;10.50;99.90;;;;;;6124647;23;20014;-88
2023/04/24 08:54:28;;;;;;;27.45;18.33;;;9.80;99.90;;;;;;6100183;23;20022;-87
2023/04/24 08:57:01;;;;;;;26.27;17.48;;;9.80;99.90;;;;;;6100149;23;20073;-87
2023/04/24 08:59:28;;;;;;;24.90;17.83;;;9.90;99.90;;;;;;6124758;23;20017;-88
2023/04/24 09:01:55;;;;;;;26.20;17.02;;;9.80;99.90;;;;;;6099322;23;20018;-88
2023/04/24 09:04:24;;;;;;;28.92;16.35;;;9.70;99.90;;;;;;6100127;23;20104;-88
2023/04/24 09:06:55;;;;;;;24.88;15.20;;;9.90;99.90;;;;;;6099784;23;20088;-88
2023/04/24 09:09:22;;;;;;;26.27;16.55;;;9.60;99.90;;;;;;6099871;23;20009;-88
2023/04/24 09:11:49;;;;;;;25.42;15.70;;;9.60;99.90;;;;;;6100110;23;20053;-87
2023/04/24 09:14:17;;;;;;;28.80;16.60;;;9.50;99.90;;;;;;6124676;23;20017;-87
2023/04/24 09:16:43;;;;;;;26.00;17.17;;;9.50;99.90;;;;;;6123500;23;20079;-87
2023/04/24 09:19:08;;;;;;;27.48;16.70;;;9.60;99.90;;;;;;6099853;23;20093;-87
2023/04/24 09:21:35;;;;;;;30.08;16.55;;;9.60;99.90;;;;;;6099600;23;20057;-87
2023/04/24 09:24:03;;;;;;;27.48;16.63;;;9.50;99.90;;;;;;6099392;23;20029;-87
2023/04/24 09:26:33;;;;;;;26.90;16.58;;;9.60;99.90;;;;;;6099641;23;20050;-87
2023/04/24 09:28:59;;;;;;;24.67;16.10;;;9.50;99.90;;;;;;6124120;23;20342;-87
2023/04/24 09:31:27;;;;;;;28.65;17.80;;;9.50;99.90;;;;;;6098898;23;20030;-87
2023/04/24 09:34:03;;;;;;;21.88;14.77;;;9.60;99.90;;;;;;6125432;23;20014;-87
2023/04/24 09:36:33;;;;;;;24.20;13.38;;;10.00;99.90;;;;;;6123965;23;20057;-87
2023/04/24 09:39:00;;;;;;;17.25;11.85;;;9.50;99.90;;;;;;6123769;23;20024;-87
2023/04/24 09:41:27;;;;;;;18.75;12.60;;;9.50;99.90;;;;;;6123820;23;20018;-87
2023/04/24 09:43:55;;;;;;;23.92;12.40;;;9.60;99.90;;;;;;6123893;23;20088;-87
2023/04/24 09:46:22;;;;;;;19.95;11.35;;;10.00;99.90;;;;;;6098729;23;20020;-87
2023/04/24 09:48:47;;;;;;;16.90;10.85;;;9.60;99.90;;;;;;6099046;23;20010;-86
2023/04/24 09:51:15;;;;;;;15.57;11.55;;;9.60;99.90;;;;;;6098993;23;20010;-87
2023/04/24 09:53:46;;;;;;;16.10;11.23;;;10.10;99.90;;;;;;6099134;23;20426;-88
2023/04/24 09:56:12;;;;;;;14.82;10.00;;;9.60;99.90;;;;;;6123510;23;20109;-87
2023/04/24 09:58:39;;;;;;;17.85;11.13;;;9.60;99.90;;;;;;6123115;23;20022;-87
2023/04/24 10:01:05;;;;;;;17.92;11.20;;;9.50;99.90;;;;;;6123309;23;20433;-87
2023/04/24 10:03:32;;;;;;;19.20;10.88;;;9.50;99.90;;;;;;6123522;23;20124;-87
2023/04/24 10:06:10;;;;;;;27.38;10.73;;;9.50;99.90;;;;;;6098345;23;20070;-87
2023/04/24 10:08:37;;;;;;;19.67;10.63;;;9.80;99.90;;;;;;6123263;23;20434;-87
2023/04/24 10:11:03;;;;;;;20.30;9.98;;;9.60;99.90;;;;;;6123278;23;20088;-87
2023/04/24 10:13:29;;;;;;;21.13;9.52;;;9.60;99.90;;;;;;6122623;23;20024;-86
2023/04/24 10:15:55;;;;;;;16.00;9.25;;;10.30;99.90;;;;;;6121532;23;20370;-87
2023/04/24 10:18:26;;;;;;;20.23;9.48;;;10.20;99.90;;;;;;6099149;23;20013;-88
2023/04/24 10:20:54;;;;;;;16.98;8.20;;;9.80;99.90;;;;;;6098611;23;20080;-87
2023/04/24 10:23:20;;;;;;;14.60;7.63;;;10.20;99.90;;;;;;6122800;23;20017;-87
2023/04/24 10:25:46;;;;;;;13.02;6.72;;;10.40;99.90;;;;;;6098449;23;20014;-87
2023/04/24 10:28:12;;;;;;;16.80;6.78;;;10.00;99.90;;;;;;6122346;23;20010;-87
2023/04/24 10:30:42;;;;;;;14.85;6.25;;;10.80;99.90;;;;;;6098602;23;20487;-86
2023/04/24 10:33:08;;;;;;;14.02;5.70;;;10.30;99.90;;;;;;6122816;23;20006;-87
2023/04/24 10:35:37;;;;;;;10.13;4.68;;;10.70;99.90;;;;;;6122237;23;20401;-87
2023/04/24 10:38:11;;;;;;;9.40;4.72;;;10.30;99.90;;;;;;6098120;23;20018;-87
2023/04/24 10:40:37;;;;;;;11.05;4.60;;;10.40;99.90;;;;;;6098483;23;20021;-87
2023/04/24 10:43:11;;;;;;;10.70;4.68;;;10.70;99.90;;;;;;6097543;23;20421;-87
2023/04/24 10:45:38;;;;;;;10.88;4.38;;;10.70;99.90;;;;;;6098351;23;20036;-86
2023/04/24 10:48:10;;;;;;;11.02;4.80;;;10.50;99.90;;;;;;6098058;23;20020;-87
2023/04/24 10:50:47;;;;;;;12.90;4.70;;;10.50;99.90;;;;;;6097804;23;20006;-86
2023/04/24 10:53:16;;;;;;;12.63;4.65;;;10.50;99.90;;;;;;6098178;23;20014;-87
2023/04/24 10:55:45;;;;;;;10.77;4.75;;;10.60;99.90;;;;;;6098219;23;20026;-87
2023/04/24 10:58:11;;;;;;;9.65;4.13;;;10.50;99.90;;;;;;6097525;23;20018;-86
2023/04/24 11:00:39;;;;;;;14.65;4.30;;;10.50;99.90;;;;;;6122691;23;20021;-86
2023/04/24 11:03:26;;;;;;;11.38;4.20;;;10.80;99.90;;;;;;6122647;23;20137;-87
2023/04/24 11:06:01;;;;;;;9.27;4.25;;;10.60;99.90;;;;;;6123688;23;20044;-87
2023/04/24 11:08:31;;;;;;;10.52;3.53;;;10.60;99.90;;;;;;6123081;23;20014;-87
2023/04/24 11:10:59;;;;;;;12.95;3.60;;;10.80;99.90;;;;;;6098754;23;20006;-87
2023/04/24 11:13:29;;;;;;;10.57;3.40;;;10.70;99.90;;;;;;6097800;23;20009;-87
2023/04/24 11:16:26;;;;;;;12.13;3.60;;;10.70;99.90;;;;;;6122747;23;20053;-86
2023/04/24 11:19:15;;;;;;;8.85;2.97;;;10.80;99.90;;;;;;6123017;23;20010;-87
2023/04/24 11:21:45;;;;;;;9.95;3.03;;;10.90;99.90;;;;;;6076844;23;20010;-87
2023/04/24 11:24:24;;;;;;;7.45;2.90;;;10.80;99.90;;;;;;6098014;23;20010;-87
2023/04/24 11:27:20;;;;;;;8.25;3.03;;;10.80;99.90;;;;;;6097692;23;20480;-87
2023/04/24 11:29:54;;;;;;;7.97;3.38;;;10.80;99.90;;;;;;6090986;23;20282;-87
2023/04/24 11:32:26;;;;;;;11.10;3.55;;;10.80;99.90;;;;;;6122447;23;20014;-87
2023/04/24 11:35:03;;;;;;;13.18;3.33;;;10.70;99.90;;;;;;6097974;23;20014;-86
2023/04/24 11:37:35;;;;;;;11.27;3.22;;;10.60;99.90;;;;;;6098699;23;20123;-87
2023/04/24 11:40:01;;;;;;;13.48;3.67;;;10.60;99.90;;;;;;6098086;23;20089;-87
2023/04/24 11:42:28;;;;;;;10.48;3.28;;;10.60;99.90;;;;;;6122471;23;20017;-87
2023/04/24 11:44:59;;;;;;;10.07;3.05;;;11.20;99.90;;;;;;6097854;23;20117;-86
2023/04/24 11:47:29;;;;;;;10.05;3.35;;;10.50;99.90;;;;;;6098015;23;20014;-87
2023/04/24 11:49:55;;;;;;;12.38;3.22;;;10.50;99.90;;;;;;6122726;23;20014;-87
2023/04/24 11:52:21;;;;;;;10.60;3.10;;;10.60;99.90;;;;;;6122547;23;20322;-87
2023/04/24 11:54:51;;;;;;;9.07;2.90;;;10.80;99.90;;;;;;6097325;23;20018;-87
2023/04/24 11:57:19;;;;;;;9.63;2.83;;;10.70;99.90;;;;;;6097844;23;20045;-88
2023/04/24 11:59:46;;;;;;;9.32;2.65;;;10.90;99.90;;;;;;6097733;23;20110;-87
2023/04/24 12:02:32;;;;;;;10.40;2.88;;;11.30;99.90;;;;;;6097493;23;20096;-87
2023/04/24 12:04:58;;;;;;;12.13;2.97;;;11.10;99.90;;;;;;6121356;23;20053;-87
2023/04/24 12:07:24;;;;;;;9.57;3.00;;;11.20;99.90;;;;;;6122003;23;20014;-87
2023/04/24 12:10:02;;;;;;;10.73;2.60;;;10.70;99.90;;;;;;6121684;23;20014;-87
2023/04/24 12:12:28;;;;;;;7.85;2.67;;;10.60;99.90;;;;;;6098064;23;20037;-87
2023/04/24 12:14:57;;;;;;;8.57;2.80;;;11.10;99.90;;;;;;6122325;23;20069;-87
2023/04/24 12:17:26;;;;;;;9.68;2.63;;;11.00;99.90;;;;;;6098101;23;20018;-87
2023/04/24 12:19:56;;;;;;;12.90;2.78;;;11.10;99.90;;;;;;6097914;23;20065;-87
2023/04/24 12:22:22;;;;;;;8.70;2.80;;;10.30;99.90;;;;;;6122668;23;20017;-87
2023/04/24 12:25:05;;;;;;;7.13;2.38;;;10.30;99.90;;;;;;6121437;23;20389;-87
2023/04/24 12:27:32;;;;;;;15.45;2.65;;;10.30;99.90;;;;;;6122536;23;20014;-87
2023/04/24 12:30:04;;;;;;;9.85;3.03;;;11.00;99.90;;;;;;6123782;23;20018;-87
2023/04/24 12:32:30;;;;;;;9.27;2.70;;;10.50;99.90;;;;;;6097861;23;20017;-87
2023/04/24 12:34:56;;;;;;;7.22;2.45;;;11.10;99.90;;;;;;6122539;23;20014;-87
2023/04/24 12:37:32;;;;;;;7.68;2.30;;;10.60;99.90;;;;;;6122213;23;20465;-88
2023/04/24 12:40:09;;;;;;;8.82;2.78;;;10.60;99.90;;;;;;6097362;23;20021;-88